Terminal Aerodrome Forecast
Issued by NWS Cleveland, OH

Home | Current Version | Previous Version | Text Only | Print | Product List | Glossary On
Versions: 1 2 3 4 5 6 7 8 9 10 11 12 13 14 15 16 17 18 19 20 21 22 23 24 25 26 27 28 29 30 31 32 33 34 35 36
000
FTUS41 KCLE 161126
TAFCAK
TAF
KCAK 161126Z 1612/1712 25008KT 5SM BR OVC008
      TEMPO 1612/1614 2SM -SHRA BR BKN004
     FM161500 25005KT 4SM -SHRA BKN008 OVC015
     FM161900 24005KT P6SM VCSH BKN025 OVC035
     FM170400 VRB02KT P6SM OVC035=

USA.gov is the U.S. government's official web portal to all federal, state and local government web resources and services.